createdAt,value
2019-02-19T00:00:17.947Z,44.05
2019-02-19T00:00:49.148Z,44.13
2019-02-19T00:01:20.361Z,45.20
2019-02-19T00:01:51.577Z,46.40
2019-02-19T00:02:22.771Z,46.00
2019-02-19T00:02:53.976Z,46.00
2019-02-19T00:03:25.212Z,45.67
2019-02-19T00:03:56.483Z,45.17
2019-02-19T00:04:27.725Z,44.85
2019-02-19T00:04:58.934Z,44.38
2019-02-19T00:05:30.146Z,44.20
2019-02-19T00:06:01.359Z,46.02
2019-02-19T00:06:32.570Z,45.03
2019-02-19T00:07:03.780Z,46.80
2019-02-19T00:07:35.032Z,45.92
2019-02-19T00:08:06.265Z,45.23
2019-02-19T00:08:37.550Z,43.65
2019-02-19T00:09:09.154Z,45.12
2019-02-19T00:09:40.376Z,44.90
2019-02-19T00:10:11.606Z,45.05
2019-02-19T00:10:42.842Z,45.85
2019-02-19T00:11:14.091Z,46.10
2019-02-19T00:11:45.340Z,46.05
2019-02-19T00:12:16.550Z,46.13
2019-02-19T00:12:47.766Z,45.40
2019-02-19T00:13:18.973Z,44.70
2019-02-19T00:13:50.194Z,45.73
2019-02-19T00:14:21.424Z,46.33
2019-02-19T00:14:52.636Z,44.40
2019-02-19T00:15:23.842Z,43.80
2019-02-19T00:15:55.060Z,46.50
2019-02-19T00:16:26.343Z,46.37
2019-02-19T00:16:57.553Z,45.03
2019-02-19T00:17:28.768Z,41.70
2019-02-19T00:17:59.975Z,43.05
2019-02-19T00:18:31.183Z,43.85
2019-02-19T00:19:02.383Z,44.45
2019-02-19T00:19:33.654Z,42.58
2019-02-19T00:20:04.858Z,41.65
2019-02-19T00:20:36.060Z,43.08
2019-02-19T00:21:07.260Z,43.87
2019-02-19T00:21:38.509Z,41.02
2019-02-19T00:22:09.707Z,42.33
2019-02-19T00:22:40.917Z,43.92
2019-02-19T00:23:12.131Z,41.88
2019-02-19T00:23:43.363Z,43.90
2019-02-19T00:24:14.626Z,42.45
2019-02-19T00:24:45.891Z,41.02
2019-02-19T00:25:17.093Z,41.98
2019-02-19T00:25:48.312Z,42.60
2019-02-19T00:26:19.523Z,43.30
2019-02-19T00:26:50.746Z,41.53
2019-02-19T00:27:21.956Z,40.98
2019-02-19T00:27:53.159Z,41.28
2019-02-19T00:28:24.382Z,40.78
2019-02-19T00:28:55.582Z,40.85
2019-02-19T00:29:26.798Z,43.28
2019-02-19T00:29:58.064Z,39.05
2019-02-19T00:30:29.304Z,40.15
2019-02-19T00:31:00.520Z,40.28
2019-02-19T00:31:31.727Z,41.45
2019-02-19T00:32:02.948Z,38.45
2019-02-19T00:32:34.152Z,40.65
2019-02-19T00:33:05.359Z,40.85
2019-02-19T00:33:36.594Z,40.60
2019-02-19T00:34:07.824Z,39.00
2019-02-19T00:34:39.041Z,39.60
2019-02-19T00:35:10.307Z,40.20
2019-02-19T00:35:41.538Z,39.13
2019-02-19T00:36:12.749Z,40.03
2019-02-19T00:36:43.956Z,39.05
2019-02-19T00:37:15.184Z,38.85
2019-02-19T00:37:46.438Z,37.98
2019-02-19T00:38:17.681Z,39.15
2019-02-19T00:38:48.930Z,39.18
2019-02-19T00:39:20.176Z,38.42
2019-02-19T00:39:51.377Z,36.77
2019-02-19T00:40:22.587Z,37.38
2019-02-19T00:40:53.790Z,35.33
2019-02-19T00:41:26.012Z,37.93
2019-02-19T00:41:57.222Z,33.67
2019-02-19T00:42:28.432Z,35.30
2019-02-19T00:42:59.682Z,36.08
2019-02-19T00:43:30.883Z,37.15
2019-02-19T00:44:02.078Z,35.90
2019-02-19T00:44:33.284Z,35.50
2019-02-19T00:45:04.500Z,35.85
2019-02-19T00:45:35.719Z,36.73
2019-02-19T00:46:06.915Z,34.73
2019-02-19T00:46:38.139Z,36.08
2019-02-19T00:47:09.347Z,35.92
2019-02-19T00:47:40.564Z,34.08
2019-02-19T00:48:11.784Z,36.08
2019-02-19T00:48:43.019Z,31.97
2019-02-19T00:49:14.269Z,33.02
2019-02-19T00:49:45.484Z,33.35
2019-02-19T00:50:16.729Z,29.45
2019-02-19T00:50:47.953Z,30.92
2019-02-19T00:51:19.210Z,30.02
2019-02-19T00:51:50.432Z,32.45
2019-02-19T00:52:21.666Z,31.17
2019-02-19T00:52:52.907Z,32.03
2019-02-19T00:53:24.106Z,32.88
2019-02-19T00:53:58.173Z,32.70
2019-02-19T00:54:29.428Z,33.63
2019-02-19T00:55:00.723Z,31.48
2019-02-19T00:55:33.893Z,30.62
2019-02-19T00:56:09.897Z,30.10
2019-02-19T00:56:41.091Z,31.42
2019-02-19T00:57:12.352Z,29.48
2019-02-19T00:57:43.604Z,28.55
2019-02-19T00:58:14.818Z,31.25
2019-02-19T00:58:46.415Z,32.17
2019-02-19T00:59:17.621Z,32.55
2019-02-19T00:59:48.889Z,33.20
2019-02-19T01:00:21.295Z,32.95
2019-02-19T01:00:54.338Z,33.02
2019-02-19T01:01:25.567Z,32.05
2019-02-19T01:01:56.781Z,30.92
2019-02-19T01:02:29.861Z,30.72
2019-02-19T01:03:02.378Z,29.37
2019-02-19T01:03:33.597Z,31.40
2019-02-19T01:04:04.801Z,31.62
2019-02-19T01:04:36.051Z,27.50
2019-02-19T01:05:07.256Z,30.65
2019-02-19T01:05:38.511Z,31.40
2019-02-19T01:06:09.727Z,28.57
2019-02-19T01:06:42.875Z,30.12
2019-02-19T01:07:14.624Z,28.60
2019-02-19T01:07:45.830Z,26.60
2019-02-19T01:08:17.048Z,28.67
2019-02-19T01:08:48.257Z,28.83
2019-02-19T01:09:19.517Z,27.77
2019-02-19T01:09:53.967Z,30.50
2019-02-19T01:10:27.932Z,28.40
2019-02-19T01:11:00.385Z,28.02
2019-02-19T01:11:31.592Z,27.40
2019-02-19T01:12:02.795Z,28.15
2019-02-19T01:12:34.052Z,28.80
2019-02-19T01:13:05.300Z,27.27
2019-02-19T01:13:36.517Z,28.00
2019-02-19T01:14:08.850Z,27.55
2019-02-19T01:14:40.049Z,27.85
2019-02-19T01:15:11.320Z,29.27
2019-02-19T01:15:42.833Z,29.87
2019-02-19T01:16:14.047Z,27.52
2019-02-19T01:16:47.984Z,29.10
2019-02-19T01:17:20.364Z,28.90
2019-02-19T01:17:56.323Z,28.35
2019-02-19T01:18:27.521Z,29.48
2019-02-19T01:19:01.851Z,28.98
2019-02-19T01:19:41.863Z,28.70
2019-02-19T01:20:13.130Z,29.45
2019-02-19T01:20:44.339Z,29.52
2019-02-19T01:21:18.222Z,29.63
2019-02-19T01:21:49.522Z,30.45
2019-02-19T01:22:20.788Z,29.77
2019-02-19T01:22:52.023Z,30.92
2019-02-19T01:23:23.224Z,30.48
2019-02-19T01:23:54.433Z,29.82
2019-02-19T01:24:25.668Z,30.50
2019-02-19T01:24:56.950Z,30.25
2019-02-19T01:25:28.177Z,30.35
2019-02-19T01:25:59.444Z,29.05
2019-02-19T01:26:30.704Z,29.23
2019-02-19T01:27:01.904Z,29.27
2019-02-19T01:27:33.099Z,30.10
2019-02-19T01:28:04.323Z,29.80
2019-02-19T01:28:35.531Z,30.72
2019-02-19T01:29:06.733Z,29.72
2019-02-19T01:29:37.965Z,28.85
2019-02-19T01:30:09.165Z,30.00
2019-02-19T01:30:40.403Z,30.02
2019-02-19T01:31:11.594Z,30.40
2019-02-19T01:31:42.860Z,29.35
2019-02-19T01:32:14.082Z,27.90
2019-02-19T01:32:45.296Z,27.55
2019-02-19T01:33:16.507Z,28.75
2019-02-19T01:33:47.717Z,26.77
2019-02-19T01:34:18.925Z,27.50
2019-02-19T01:34:50.138Z,27.73
2019-02-19T01:35:21.361Z,27.67
2019-02-19T01:35:52.561Z,26.87
2019-02-19T01:36:23.775Z,27.15
2019-02-19T01:36:55.025Z,27.55
2019-02-19T01:37:26.245Z,28.23
2019-02-19T01:37:57.458Z,29.37
2019-02-19T01:38:28.709Z,29.75
2019-02-19T01:39:00.102Z,26.85
2019-02-19T01:39:31.310Z,28.87
2019-02-19T01:40:02.523Z,29.85
2019-02-19T01:40:33.761Z,27.77
2019-02-19T01:41:04.985Z,28.35
2019-02-19T01:41:36.195Z,29.02
2019-02-19T01:42:07.414Z,28.23
2019-02-19T01:42:38.636Z,28.17
2019-02-19T01:43:09.881Z,28.80
2019-02-19T01:43:41.093Z,28.80
2019-02-19T01:44:12.295Z,28.87
2019-02-19T01:44:43.503Z,30.70
2019-02-19T01:45:14.738Z,30.15
2019-02-19T01:45:45.979Z,27.98
2019-02-19T01:46:17.188Z,28.85
2019-02-19T01:46:48.403Z,28.92
2019-02-19T01:47:19.618Z,28.62
2019-02-19T01:47:50.839Z,28.42
2019-02-19T01:48:22.099Z,27.45
2019-02-19T01:48:53.328Z,30.00
2019-02-19T01:49:24.539Z,28.73
2019-02-19T01:49:55.776Z,29.63
2019-02-19T01:50:26.999Z,28.27
2019-02-19T01:50:58.311Z,28.67
2019-02-19T01:51:29.515Z,28.52
2019-02-19T01:52:00.719Z,28.65
2019-02-19T01:52:31.947Z,26.93
2019-02-19T01:53:03.174Z,29.55
2019-02-19T01:53:34.378Z,29.20
2019-02-19T01:54:05.607Z,29.40
2019-02-19T01:54:36.833Z,30.08
2019-02-19T01:55:08.056Z,28.70
2019-02-19T01:55:39.254Z,28.92
2019-02-19T01:56:10.505Z,30.17
2019-02-19T01:56:41.721Z,30.40
2019-02-19T01:57:12.919Z,27.75
2019-02-19T01:57:44.163Z,29.05
2019-02-19T01:58:15.392Z,28.87
2019-02-19T01:58:46.600Z,29.77
2019-02-19T01:59:17.812Z,28.17
2019-02-19T01:59:49.022Z,28.73
2019-02-19T02:00:20.266Z,28.42
2019-02-19T02:00:51.478Z,28.60
2019-02-19T02:01:22.699Z,29.18
2019-02-19T02:01:53.923Z,30.02
2019-02-19T02:02:25.133Z,29.48
2019-02-19T02:02:56.335Z,30.30
2019-02-19T02:03:27.639Z,29.72
2019-02-19T02:03:58.845Z,28.75
2019-02-19T02:04:30.059Z,29.85
2019-02-19T02:05:01.306Z,28.67
2019-02-19T02:05:32.517Z,28.23
2019-02-19T02:06:03.784Z,29.37
2019-02-19T02:06:34.993Z,29.67
2019-02-19T02:07:06.224Z,28.27
2019-02-19T02:07:37.418Z,28.23
2019-02-19T02:08:08.640Z,28.20
2019-02-19T02:08:39.867Z,28.32
2019-02-19T02:09:11.080Z,27.60
2019-02-19T02:09:42.300Z,26.70
2019-02-19T02:10:13.595Z,26.68
2019-02-19T02:10:44.817Z,26.48
2019-02-19T02:11:16.105Z,25.97
2019-02-19T02:11:47.370Z,27.52
2019-02-19T02:12:18.579Z,26.80
2019-02-19T02:12:49.753Z,27.35
2019-02-19T02:13:20.987Z,27.35
2019-02-19T02:13:52.250Z,28.50
2019-02-19T02:14:23.448Z,27.87
2019-02-19T02:14:54.669Z,27.73
2019-02-19T02:15:25.876Z,28.30
2019-02-19T02:15:57.078Z,27.80
2019-02-19T02:16:28.294Z,27.50
2019-02-19T02:16:59.547Z,28.50
2019-02-19T02:17:30.754Z,27.95
2019-02-19T02:18:01.987Z,27.87
2019-02-19T02:18:33.182Z,29.23
2019-02-19T02:19:04.402Z,27.55
2019-02-19T02:19:35.635Z,28.27
2019-02-19T02:20:06.836Z,27.87
2019-02-19T02:20:38.042Z,28.47
2019-02-19T02:21:09.297Z,27.05
2019-02-19T02:21:40.540Z,27.80
2019-02-19T02:22:11.756Z,27.77
2019-02-19T02:22:42.954Z,28.02
2019-02-19T02:23:14.201Z,28.90
2019-02-19T02:23:45.410Z,27.40
2019-02-19T02:24:16.620Z,27.15
2019-02-19T02:24:47.824Z,28.32
2019-02-19T02:25:19.048Z,28.85
2019-02-19T02:25:50.261Z,28.62
2019-02-19T02:26:21.471Z,28.47
2019-02-19T02:26:52.722Z,26.75
2019-02-19T02:27:24.008Z,26.82
2019-02-19T02:27:55.290Z,27.30
2019-02-19T02:28:26.535Z,26.48
2019-02-19T02:28:57.744Z,27.05
2019-02-19T02:29:28.959Z,27.30
2019-02-19T02:30:00.346Z,27.05
2019-02-19T02:30:31.627Z,29.18
2019-02-19T02:31:02.831Z,26.42
2019-02-19T02:31:34.046Z,26.52
2019-02-19T02:32:05.256Z,25.57
2019-02-19T02:32:36.465Z,25.68
2019-02-19T02:33:07.684Z,26.77
2019-02-19T02:33:38.895Z,26.45
2019-02-19T02:34:10.104Z,26.75
2019-02-19T02:34:41.309Z,26.62
2019-02-19T02:35:12.559Z,27.50
2019-02-19T02:35:43.805Z,26.75
2019-02-19T02:36:15.014Z,27.35
2019-02-19T02:36:46.226Z,25.55
2019-02-19T02:37:17.427Z,26.30
2019-02-19T02:37:48.672Z,25.52
2019-02-19T02:38:19.884Z,26.75
2019-02-19T02:38:51.078Z,27.25
2019-02-19T02:39:22.300Z,26.55
2019-02-19T02:39:53.505Z,26.17
2019-02-19T02:40:24.705Z,24.65
2019-02-19T02:40:55.969Z,24.32
2019-02-19T02:41:27.174Z,25.35
2019-02-19T02:41:58.388Z,24.25
2019-02-19T02:42:29.597Z,22.90
2019-02-19T02:43:00.883Z,23.87
2019-02-19T02:43:32.062Z,26.52
2019-02-19T02:44:03.287Z,25.02
2019-02-19T02:44:34.494Z,25.12
2019-02-19T02:45:05.721Z,25.00
2019-02-19T02:45:36.927Z,24.50
2019-02-19T02:46:08.151Z,24.05
2019-02-19T02:46:39.340Z,25.15
2019-02-19T02:47:10.552Z,24.57
2019-02-19T02:47:41.763Z,24.75
2019-02-19T02:48:13.023Z,25.05
2019-02-19T02:48:44.234Z,24.55
2019-02-19T02:49:15.460Z,24.72
2019-02-19T02:49:46.676Z,23.98
2019-02-19T02:50:17.906Z,25.60
2019-02-19T02:50:49.108Z,24.63
2019-02-19T02:51:20.335Z,25.60
2019-02-19T02:51:51.585Z,26.80
2019-02-19T02:52:22.881Z,24.85
2019-02-19T02:52:54.111Z,24.95
2019-02-19T02:53:25.332Z,24.07
2019-02-19T02:53:56.535Z,25.55
2019-02-19T02:54:27.750Z,24.85
2019-02-19T02:54:58.968Z,25.40
2019-02-19T02:55:30.178Z,26.02
2019-02-19T02:56:01.403Z,25.30
2019-02-19T02:56:32.621Z,25.40
2019-02-19T02:57:03.887Z,25.25
2019-02-19T02:57:35.101Z,26.33
2019-02-19T02:58:06.341Z,26.68
2019-02-19T02:58:37.574Z,26.33
2019-02-19T02:59:08.803Z,25.27
2019-02-19T02:59:40.015Z,23.20
2019-02-19T03:00:11.239Z,23.52
2019-02-19T03:00:42.441Z,25.02
2019-02-19T03:01:13.710Z,22.70
2019-02-19T03:01:44.948Z,21.27
2019-02-19T03:02:16.162Z,21.77
2019-02-19T03:02:47.465Z,21.15
2019-02-19T03:03:19.631Z,22.95
2019-02-19T03:03:50.839Z,21.42
2019-02-19T03:04:22.121Z,22.73
2019-02-19T03:04:53.341Z,22.22
2019-02-19T03:05:25.374Z,21.65
2019-02-19T03:05:56.682Z,22.73
2019-02-19T03:06:27.886Z,22.58
2019-02-19T03:06:59.098Z,22.48
2019-02-19T03:07:30.295Z,21.77
2019-02-19T03:08:01.539Z,22.73
2019-02-19T03:08:32.753Z,22.65
2019-02-19T03:09:04.041Z,21.52
2019-02-19T03:09:35.250Z,22.55
2019-02-19T03:10:06.493Z,22.65
2019-02-19T03:10:37.780Z,22.65
2019-02-19T03:11:09.031Z,22.37
2019-02-19T03:11:40.295Z,22.25
2019-02-19T03:12:11.482Z,23.15
2019-02-19T03:12:45.408Z,23.77
2019-02-19T03:13:16.643Z,23.00
2019-02-19T03:13:47.846Z,22.70
2019-02-19T03:14:19.084Z,22.55
2019-02-19T03:14:50.298Z,23.00
2019-02-19T03:15:21.507Z,23.15
2019-02-19T03:16:01.899Z,21.73
2019-02-19T03:16:26.566Z,22.55
2019-02-19T03:16:57.773Z,23.20
2019-02-19T03:17:29.045Z,23.42
2019-02-19T03:18:00.225Z,23.27
2019-02-19T03:18:31.439Z,23.32
2019-02-19T03:19:02.695Z,22.73
2019-02-19T03:19:33.938Z,23.50
2019-02-19T03:20:05.148Z,23.73
2019-02-19T03:20:36.360Z,23.40
2019-02-19T03:21:07.574Z,23.83
2019-02-19T03:21:38.784Z,23.20
2019-02-19T03:22:09.991Z,22.98
2019-02-19T03:22:41.266Z,22.45
2019-02-19T03:23:12.493Z,22.55
2019-02-19T03:23:43.733Z,22.95
2019-02-19T03:24:14.967Z,21.40
2019-02-19T03:24:46.190Z,21.20
2019-02-19T03:25:17.426Z,21.12
2019-02-19T03:25:48.655Z,21.30
2019-02-19T03:26:19.843Z,23.20
2019-02-19T03:26:51.070Z,23.25
2019-02-19T03:27:22.300Z,22.55
2019-02-19T03:27:53.528Z,22.93
2019-02-19T03:28:24.767Z,22.98
2019-02-19T03:28:56.005Z,24.20
2019-02-19T03:29:27.266Z,22.93
2019-02-19T03:29:58.531Z,22.82
2019-02-19T03:30:29.756Z,23.52
2019-02-19T03:31:00.977Z,23.32
2019-02-19T03:31:32.198Z,24.18
2019-02-19T03:32:03.401Z,23.38
2019-02-19T03:32:34.666Z,23.47
2019-02-19T03:33:05.889Z,23.15
2019-02-19T03:33:37.164Z,22.87
2019-02-19T03:34:08.429Z,23.40
2019-02-19T03:34:39.665Z,23.25
2019-02-19T03:35:10.882Z,23.10
2019-02-19T03:35:42.086Z,23.00
2019-02-19T03:36:13.298Z,23.32
2019-02-19T03:36:44.542Z,23.45
2019-02-19T03:37:15.736Z,22.58
2019-02-19T03:37:46.982Z,22.77
2019-02-19T03:38:18.178Z,24.18
2019-02-19T03:38:49.462Z,23.30
2019-02-19T03:39:20.681Z,23.85
2019-02-19T03:39:51.949Z,23.50
2019-02-19T03:40:23.202Z,23.20
2019-02-19T03:40:54.498Z,22.82
2019-02-19T03:41:25.774Z,22.60
2019-02-19T03:41:57.014Z,25.80
2019-02-19T03:42:28.273Z,23.67
2019-02-19T03:42:59.521Z,23.27
2019-02-19T03:43:30.749Z,23.42
2019-02-19T03:44:01.999Z,23.35
2019-02-19T03:44:33.198Z,24.07
2019-02-19T03:45:04.418Z,22.48
2019-02-19T03:45:35.693Z,24.85
2019-02-19T03:46:12.205Z,24.02
2019-02-19T03:46:39.809Z,23.12
2019-02-19T03:47:11.021Z,24.85
2019-02-19T03:47:42.233Z,25.00
2019-02-19T03:48:13.449Z,24.15
2019-02-19T03:48:46.662Z,24.57
2019-02-19T03:49:17.898Z,25.77
2019-02-19T03:49:49.099Z,24.60
2019-02-19T03:50:20.370Z,24.15
2019-02-19T03:50:51.584Z,24.63
2019-02-19T03:51:22.822Z,23.40
2019-02-19T03:51:54.031Z,23.80
2019-02-19T03:52:25.282Z,23.73
2019-02-19T03:52:56.452Z,25.37
2019-02-19T03:53:27.668Z,25.97
2019-02-19T03:53:58.951Z,24.82
2019-02-19T03:54:30.160Z,24.67
2019-02-19T03:55:01.378Z,24.30
2019-02-19T03:55:32.588Z,24.90
2019-02-19T03:56:03.982Z,25.82
2019-02-19T03:56:35.181Z,24.80
2019-02-19T03:57:06.424Z,24.65
2019-02-19T03:57:37.610Z,25.68
2019-02-19T03:58:08.815Z,24.77
2019-02-19T03:58:40.041Z,24.70
2019-02-19T03:59:11.290Z,25.15
2019-02-19T03:59:42.488Z,25.97
2019-02-19T04:00:13.689Z,26.23
2019-02-19T04:00:44.910Z,25.35
2019-02-19T04:01:16.161Z,25.72
2019-02-19T04:01:47.767Z,25.05
2019-02-19T04:02:18.982Z,24.63
2019-02-19T04:02:50.195Z,26.30
2019-02-19T04:03:21.424Z,26.40
2019-02-19T04:03:52.634Z,26.37
2019-02-19T04:04:23.840Z,26.37
2019-02-19T04:04:55.050Z,25.48
2019-02-19T04:05:26.264Z,26.60
2019-02-19T04:05:57.474Z,26.52
2019-02-19T04:06:28.742Z,27.42
2019-02-19T04:06:59.951Z,27.05
2019-02-19T04:07:31.148Z,26.73
2019-02-19T04:08:02.449Z,26.97
2019-02-19T04:08:33.750Z,27.25
2019-02-19T04:09:04.977Z,26.35
2019-02-19T04:09:36.198Z,26.87
2019-02-19T04:10:07.425Z,26.35
2019-02-19T04:10:38.700Z,27.10
2019-02-19T04:11:09.919Z,27.30
2019-02-19T04:11:41.101Z,27.80
2019-02-19T04:12:12.338Z,27.65
2019-02-19T04:12:43.597Z,28.70
2019-02-19T04:13:14.814Z,28.32
2019-02-19T04:13:46.020Z,26.87
2019-02-19T04:14:17.220Z,29.77
2019-02-19T04:14:48.444Z,28.17
2019-02-19T04:15:19.650Z,28.10
2019-02-19T04:15:50.882Z,28.52
2019-02-19T04:16:22.088Z,28.50
2019-02-19T04:16:53.362Z,30.15
2019-02-19T04:17:24.565Z,28.50
2019-02-19T04:17:55.766Z,28.80
2019-02-19T04:18:26.964Z,30.50
2019-02-19T04:18:58.187Z,28.25
2019-02-19T04:19:29.400Z,28.52
2019-02-19T04:20:00.627Z,29.20
2019-02-19T04:20:31.821Z,30.85
2019-02-19T04:21:03.094Z,30.27
2019-02-19T04:21:34.331Z,30.17
2019-02-19T04:22:05.547Z,30.00
2019-02-19T04:22:36.750Z,28.75
2019-02-19T04:23:07.971Z,29.57
2019-02-19T04:23:39.195Z,29.07
2019-02-19T04:24:10.435Z,29.42
2019-02-19T04:24:41.631Z,30.57
2019-02-19T04:25:12.857Z,30.62
2019-02-19T04:25:44.094Z,30.62
2019-02-19T04:26:15.307Z,29.35
2019-02-19T04:26:46.516Z,29.80
2019-02-19T04:27:17.725Z,32.35
2019-02-19T04:27:48.944Z,30.88
2019-02-19T04:28:20.152Z,32.80
2019-02-19T04:28:51.371Z,31.90
2019-02-19T04:29:22.618Z,30.75
2019-02-19T04:29:53.836Z,33.33
2019-02-19T04:30:25.053Z,31.62
2019-02-19T04:30:56.263Z,31.80
2019-02-19T04:31:27.463Z,32.05
2019-02-19T04:31:58.679Z,33.05
2019-02-19T04:32:29.883Z,33.35
2019-02-19T04:33:01.091Z,33.70
2019-02-19T04:33:32.320Z,32.67
2019-02-19T04:34:03.531Z,34.13
2019-02-19T04:34:34.739Z,32.08
2019-02-19T04:35:05.954Z,33.13
2019-02-19T04:35:37.156Z,33.60
2019-02-19T04:36:08.380Z,34.05
2019-02-19T04:36:39.585Z,33.05
2019-02-19T04:37:10.784Z,32.38
2019-02-19T04:37:42.035Z,32.95
2019-02-19T04:38:13.246Z,31.73
2019-02-19T04:38:44.448Z,31.95
2019-02-19T04:39:15.700Z,31.15
2019-02-19T04:39:46.911Z,30.97
2019-02-19T04:40:18.121Z,31.93
2019-02-19T04:40:50.689Z,32.78
2019-02-19T04:41:21.908Z,31.35
2019-02-19T04:41:53.129Z,31.52
2019-02-19T04:42:24.348Z,32.17
2019-02-19T04:42:55.559Z,31.15
2019-02-19T04:43:26.774Z,30.95
2019-02-19T04:43:57.987Z,31.95
2019-02-19T04:44:29.222Z,30.48
2019-02-19T04:45:00.506Z,30.37
2019-02-19T04:45:31.715Z,31.12
2019-02-19T04:46:02.917Z,30.48
2019-02-19T04:46:34.121Z,30.35
2019-02-19T04:47:05.318Z,29.35
2019-02-19T04:47:36.527Z,30.75
2019-02-19T04:48:07.743Z,30.55
2019-02-19T04:48:38.944Z,29.50
2019-02-19T04:49:10.193Z,30.72
2019-02-19T04:49:41.416Z,29.57
2019-02-19T04:50:12.615Z,30.55
2019-02-19T04:50:43.833Z,28.45
2019-02-19T04:51:15.044Z,27.77
2019-02-19T04:51:46.267Z,25.85
2019-02-19T04:52:17.473Z,28.23
2019-02-19T04:52:48.717Z,28.62
2019-02-19T04:53:19.925Z,29.40
2019-02-19T04:53:51.149Z,28.45
2019-02-19T04:54:22.415Z,28.95
2019-02-19T04:54:53.636Z,28.15
2019-02-19T04:55:24.843Z,27.77
2019-02-19T04:55:56.065Z,28.90
2019-02-19T04:56:27.319Z,29.32
2019-02-19T04:56:58.506Z,28.98
2019-02-19T04:57:29.785Z,29.60
2019-02-19T04:58:00.986Z,28.60
2019-02-19T04:58:32.224Z,30.10
2019-02-19T04:59:03.456Z,30.27
2019-02-19T04:59:34.668Z,31.02
2019-02-19T05:00:05.894Z,31.55
2019-02-19T05:00:37.105Z,31.77
2019-02-19T05:01:08.302Z,32.17
2019-02-19T05:01:39.567Z,30.75
2019-02-19T05:02:10.792Z,30.15
2019-02-19T05:02:42.015Z,30.95
2019-02-19T05:03:13.214Z,30.25
2019-02-19T05:03:44.428Z,30.60
2019-02-19T05:04:15.648Z,30.65
2019-02-19T05:04:46.873Z,30.02
2019-02-19T05:05:18.084Z,30.37
2019-02-19T05:05:49.328Z,29.05
2019-02-19T05:06:20.550Z,29.27
2019-02-19T05:06:51.761Z,29.15
2019-02-19T05:07:22.977Z,29.82
2019-02-19T05:07:54.186Z,27.15
2019-02-19T05:08:25.397Z,27.62
2019-02-19T05:08:56.724Z,27.65
2019-02-19T05:09:27.924Z,28.20
2019-02-19T05:10:00.372Z,27.37
2019-02-19T05:10:31.637Z,27.75
2019-02-19T05:11:02.823Z,28.87
2019-02-19T05:11:34.032Z,27.60
2019-02-19T05:12:05.296Z,27.90
2019-02-19T05:12:36.520Z,28.65
2019-02-19T05:13:07.746Z,28.02
2019-02-19T05:13:38.962Z,27.50
2019-02-19T05:14:10.206Z,27.58
2019-02-19T05:14:41.425Z,28.57
2019-02-19T05:15:12.635Z,28.20
2019-02-19T05:15:43.840Z,27.65
2019-02-19T05:16:15.154Z,26.52
2019-02-19T05:16:46.363Z,27.62
2019-02-19T05:17:17.574Z,27.15
2019-02-19T05:17:48.807Z,26.97
2019-02-19T05:18:20.054Z,26.82
2019-02-19T05:18:51.351Z,27.60
2019-02-19T05:19:22.563Z,27.32
2019-02-19T05:19:53.788Z,27.13
2019-02-19T05:20:24.977Z,27.55
2019-02-19T05:20:56.185Z,27.10
2019-02-19T05:21:27.405Z,26.77
2019-02-19T05:21:58.627Z,26.00
2019-02-19T05:22:29.860Z,27.07
2019-02-19T05:23:01.115Z,26.80
2019-02-19T05:23:32.336Z,28.98
2019-02-19T05:24:03.541Z,29.05
2019-02-19T05:24:34.767Z,27.82
2019-02-19T05:25:06.031Z,27.52
2019-02-19T05:25:37.258Z,28.17
2019-02-19T05:26:08.473Z,27.48
2019-02-19T05:26:39.690Z,27.45
2019-02-19T05:27:10.956Z,28.83
2019-02-19T05:27:42.173Z,28.27
2019-02-19T05:28:13.377Z,29.40
2019-02-19T05:28:44.589Z,29.00
2019-02-19T05:29:15.801Z,27.55
2019-02-19T05:29:47.020Z,28.60
2019-02-19T05:30:18.233Z,29.30
2019-02-19T05:30:49.525Z,28.25
2019-02-19T05:31:20.742Z,27.15
2019-02-19T05:31:51.996Z,27.70
2019-02-19T05:32:23.201Z,27.75
2019-02-19T05:32:54.435Z,28.90
2019-02-19T05:33:25.646Z,27.58
2019-02-19T05:33:56.871Z,28.70
2019-02-19T05:34:28.078Z,28.42
2019-02-19T05:34:59.295Z,29.15
2019-02-19T05:35:30.548Z,27.98
2019-02-19T05:36:01.756Z,28.05
2019-02-19T05:36:32.974Z,27.45
2019-02-19T05:37:04.574Z,26.82
2019-02-19T05:37:35.888Z,27.73
2019-02-19T05:38:07.137Z,28.57
2019-02-19T05:38:38.361Z,28.80
2019-02-19T05:39:09.559Z,28.83
2019-02-19T05:39:40.774Z,28.30
2019-02-19T05:40:12.029Z,28.90
2019-02-19T05:40:43.208Z,28.42
2019-02-19T05:41:14.421Z,29.00
2019-02-19T05:41:45.624Z,27.93
2019-02-19T05:42:16.893Z,27.85
2019-02-19T05:42:48.184Z,27.60
2019-02-19T05:43:19.447Z,27.45
2019-02-19T05:43:50.686Z,26.82
2019-02-19T05:44:21.896Z,26.05
2019-02-19T05:44:53.122Z,25.88
2019-02-19T05:45:24.324Z,27.27
2019-02-19T05:45:55.542Z,27.40
2019-02-19T05:46:26.809Z,27.32
2019-02-19T05:46:58.022Z,28.57
2019-02-19T05:47:29.246Z,28.45
2019-02-19T05:48:00.461Z,26.70
2019-02-19T05:48:31.683Z,25.85
2019-02-19T05:49:02.906Z,28.00
2019-02-19T05:49:34.165Z,29.72
2019-02-19T05:50:05.374Z,28.67
2019-02-19T05:50:36.604Z,28.17
2019-02-19T05:51:07.833Z,29.50
2019-02-19T05:51:39.310Z,29.37
2019-02-19T05:52:10.510Z,28.90
2019-02-19T05:52:41.737Z,27.77
2019-02-19T05:53:12.970Z,25.70
2019-02-19T05:53:44.945Z,24.43
2019-02-19T05:54:16.313Z,24.23
2019-02-19T05:54:47.525Z,25.62
2019-02-19T05:55:18.765Z,26.05
2019-02-19T05:55:49.949Z,24.75
2019-02-19T05:56:21.165Z,22.93
2019-02-19T05:56:52.406Z,23.50
2019-02-19T05:57:23.672Z,23.35
2019-02-19T05:57:54.873Z,23.35
2019-02-19T05:58:26.101Z,24.50
2019-02-19T05:58:57.326Z,23.62
2019-02-19T05:59:28.525Z,23.15
2019-02-19T05:59:59.773Z,23.98
2019-02-19T06:00:30.984Z,22.93
2019-02-19T06:01:02.186Z,24.00
2019-02-19T06:01:33.407Z,25.57
2019-02-19T06:02:04.623Z,22.48
2019-02-19T06:02:35.836Z,23.85
2019-02-19T06:03:07.064Z,24.43
2019-02-19T06:03:38.329Z,25.02
2019-02-19T06:04:09.523Z,24.65
2019-02-19T06:04:40.734Z,24.30
2019-02-19T06:05:11.956Z,25.23
2019-02-19T06:05:43.352Z,23.67
2019-02-19T06:06:14.604Z,23.35
2019-02-19T06:06:45.803Z,24.00
2019-02-19T06:07:17.022Z,23.92
2019-02-19T06:07:48.237Z,24.65
2019-02-19T06:08:19.469Z,24.57
2019-02-19T06:08:50.753Z,25.40
2019-02-19T06:09:21.966Z,24.72
2019-02-19T06:09:56.201Z,23.57
2019-02-19T06:10:27.439Z,23.27
2019-02-19T06:10:58.651Z,24.47
2019-02-19T06:11:30.882Z,24.47
2019-02-19T06:12:02.179Z,26.37
2019-02-19T06:12:33.384Z,24.63
2019-02-19T06:13:04.615Z,25.08
2019-02-19T06:13:35.846Z,24.35
2019-02-19T06:14:07.092Z,24.65
2019-02-19T06:14:38.317Z,24.92
2019-02-19T06:15:09.530Z,22.82
2019-02-19T06:15:40.756Z,23.12
2019-02-19T06:16:11.951Z,25.30
2019-02-19T06:16:43.154Z,23.80
2019-02-19T06:17:14.410Z,24.20
2019-02-19T06:17:45.619Z,24.32
2019-02-19T06:18:16.842Z,24.72
2019-02-19T06:18:48.073Z,24.15
2019-02-19T06:19:19.332Z,25.00
2019-02-19T06:19:50.601Z,23.52
2019-02-19T06:20:21.813Z,25.02
2019-02-19T06:20:53.030Z,24.92
2019-02-19T06:21:24.287Z,24.52
2019-02-19T06:21:55.500Z,24.75
2019-02-19T06:22:26.725Z,23.60
2019-02-19T06:22:57.984Z,24.90
2019-02-19T06:23:29.222Z,23.40
2019-02-19T06:24:00.473Z,23.40
2019-02-19T06:24:31.699Z,25.15
2019-02-19T06:25:02.925Z,24.10
2019-02-19T06:25:34.132Z,24.57
2019-02-19T06:26:05.330Z,24.82
2019-02-19T06:26:36.583Z,24.15
2019-02-19T06:27:07.795Z,24.32
2019-02-19T06:27:39.007Z,23.87
2019-02-19T06:28:10.236Z,23.25
2019-02-19T06:28:41.449Z,24.05
2019-02-19T06:29:12.685Z,23.90
2019-02-19T06:29:43.920Z,23.52
2019-02-19T06:30:15.123Z,24.43
2019-02-19T06:30:46.349Z,23.87
2019-02-19T06:31:17.621Z,23.07
2019-02-19T06:31:48.862Z,23.62
2019-02-19T06:32:20.146Z,22.50
2019-02-19T06:32:57.864Z,23.98
2019-02-19T06:33:29.129Z,20.45
2019-02-19T06:34:00.355Z,22.75
2019-02-19T06:34:31.582Z,23.98
2019-02-19T06:35:02.784Z,24.35
2019-02-19T06:35:34.042Z,22.02
2019-02-19T06:36:05.268Z,22.67
2019-02-19T06:36:36.441Z,21.42
2019-02-19T06:37:07.701Z,20.43
2019-02-19T06:37:39.095Z,21.95
2019-02-19T06:38:10.366Z,21.42
2019-02-19T06:38:41.592Z,20.82
2019-02-19T06:39:12.888Z,20.57
2019-02-19T06:39:44.136Z,22.07
2019-02-19T06:40:15.455Z,22.37
2019-02-19T06:40:46.730Z,23.22
2019-02-19T06:41:18.020Z,23.40
2019-02-19T06:41:49.297Z,22.80
2019-02-19T06:42:20.510Z,21.02
2019-02-19T06:42:51.784Z,21.45
2019-02-19T06:43:22.980Z,22.67